sensor_id;sensor_type;location;lat;lon;timestamp;P1;durP1;ratioP1;P2;durP2;ratioP2
76786;SDS011;65739;51.482;5.702;2023-07-31T00:00:10;22.63;;;5.72;;
76786;SDS011;65739;51.482;5.702;2023-07-31T00:02:37;21.15;;;5.75;;
76786;SDS011;65739;51.482;5.702;2023-07-31T00:05:03;21.75;;;5.82;;
76786;SDS011;65739;51.482;5.702;2023-07-31T00:07:28;18.33;;;5.63;;
76786;SDS011;65739;51.482;5.702;2023-07-31T00:09:54;19.67;;;5.20;;
76786;SDS011;65739;51.482;5.702;2023-07-31T00:12:21;18.30;;;5.75;;
76786;SDS011;65739;51.482;5.702;2023-07-31T00:14:47;21.27;;;5.60;;
76786;SDS011;65739;51.482;5.702;2023-07-31T00:17:13;17.58;;;5.55;;
76786;SDS011;65739;51.482;5.702;2023-07-31T00:19:38;21.67;;;5.28;;
76786;SDS011;65739;51.482;5.702;2023-07-31T00:22:04;20.15;;;5.35;;
76786;SDS011;65739;51.482;5.702;2023-07-31T00:24:30;17.90;;;6.35;;
76786;SDS011;65739;51.482;5.702;2023-07-31T00:26:55;17.65;;;5.05;;
76786;SDS011;65739;51.482;5.702;2023-07-31T00:29:21;15.05;;;4.22;;
76786;SDS011;65739;51.482;5.702;2023-07-31T00:31:46;17.00;;;5.10;;
76786;SDS011;65739;51.482;5.702;2023-07-31T00:34:12;15.13;;;5.03;;
76786;SDS011;65739;51.482;5.702;2023-07-31T00:36:37;16.23;;;4.57;;
76786;SDS011;65739;51.482;5.702;2023-07-31T00:39:03;15.25;;;5.20;;
76786;SDS011;65739;51.482;5.702;2023-07-31T00:41:29;14.77;;;4.80;;
76786;SDS011;65739;51.482;5.702;2023-07-31T00:43:55;18.10;;;5.10;;
76786;SDS011;65739;51.482;5.702;2023-07-31T00:46:20;13.35;;;4.65;;
76786;SDS011;65739;51.482;5.702;2023-07-31T00:48:46;14.88;;;4.65;;
76786;SDS011;65739;51.482;5.702;2023-07-31T00:51:12;12.35;;;4.32;;
76786;SDS011;65739;51.482;5.702;2023-07-31T00:53:37;12.77;;;4.10;;
76786;SDS011;65739;51.482;5.702;2023-07-31T00:56:05;9.68;;;3.92;;
76786;SDS011;65739;51.482;5.702;2023-07-31T00:58:31;12.98;;;4.10;;
76786;SDS011;65739;51.482;5.702;2023-07-31T01:00:57;12.27;;;4.05;;
76786;SDS011;65739;51.482;5.702;2023-07-31T01:03:22;12.52;;;4.82;;
76786;SDS011;65739;51.482;5.702;2023-07-31T01:08:34;17.75;;;4.57;;
76786;SDS011;65739;51.482;5.702;2023-07-31T01:11:14;19.88;;;5.03;;
76786;SDS011;65739;51.482;5.702;2023-07-31T01:13:44;9.95;;;3.85;;
76786;SDS011;65739;51.482;5.702;2023-07-31T01:16:11;9.45;;;3.97;;
76786;SDS011;65739;51.482;5.702;2023-07-31T01:18:37;9.18;;;3.83;;
76786;SDS011;65739;51.482;5.702;2023-07-31T01:26:41;10.88;;;4.18;;
76786;SDS011;65739;51.482;5.702;2023-07-31T01:32:02;11.75;;;3.85;;
76786;SDS011;65739;51.482;5.702;2023-07-31T01:34:31;12.35;;;4.03;;
76786;SDS011;65739;51.482;5.702;2023-07-31T01:36:58;12.77;;;3.75;;
76786;SDS011;65739;51.482;5.702;2023-07-31T01:39:23;14.57;;;4.35;;
76786;SDS011;65739;51.482;5.702;2023-07-31T01:41:49;14.02;;;4.53;;
76786;SDS011;65739;51.482;5.702;2023-07-31T01:44:15;12.93;;;4.30;;
76786;SDS011;65739;51.482;5.702;2023-07-31T01:46:40;19.80;;;4.97;;
76786;SDS011;65739;51.482;5.702;2023-07-31T01:49:06;13.57;;;4.43;;
76786;SDS011;65739;51.482;5.702;2023-07-31T01:51:31;16.65;;;5.07;;
76786;SDS011;65739;51.482;5.702;2023-07-31T01:54:00;14.55;;;4.40;;
76786;SDS011;65739;51.482;5.702;2023-07-31T01:56:26;17.17;;;4.47;;
76786;SDS011;65739;51.482;5.702;2023-07-31T01:58:52;16.85;;;4.78;;
76786;SDS011;65739;51.482;5.702;2023-07-31T02:01:17;14.65;;;4.32;;
76786;SDS011;65739;51.482;5.702;2023-07-31T02:03:43;13.95;;;4.43;;
76786;SDS011;65739;51.482;5.702;2023-07-31T02:06:08;14.82;;;4.38;;
76786;SDS011;65739;51.482;5.702;2023-07-31T02:08:34;14.05;;;4.43;;
76786;SDS011;65739;51.482;5.702;2023-07-31T02:10:59;18.33;;;4.55;;
76786;SDS011;65739;51.482;5.702;2023-07-31T02:13:25;12.65;;;4.25;;
76786;SDS011;65739;51.482;5.702;2023-07-31T02:15:50;13.75;;;4.53;;
76786;SDS011;65739;51.482;5.702;2023-07-31T02:18:16;14.50;;;4.10;;
76786;SDS011;65739;51.482;5.702;2023-07-31T02:20:42;12.57;;;4.05;;
76786;SDS011;65739;51.482;5.702;2023-07-31T02:23:07;11.40;;;4.32;;
76786;SDS011;65739;51.482;5.702;2023-07-31T02:25:33;14.73;;;4.68;;
76786;SDS011;65739;51.482;5.702;2023-07-31T02:27:58;14.20;;;4.40;;
76786;SDS011;65739;51.482;5.702;2023-07-31T02:30:24;21.50;;;5.15;;
76786;SDS011;65739;51.482;5.702;2023-07-31T02:32:49;14.52;;;4.63;;
76786;SDS011;65739;51.482;5.702;2023-07-31T02:35:15;13.95;;;4.70;;
76786;SDS011;65739;51.482;5.702;2023-07-31T02:37:41;10.70;;;4.72;;
76786;SDS011;65739;51.482;5.702;2023-07-31T02:40:07;16.65;;;4.65;;
76786;SDS011;65739;51.482;5.702;2023-07-31T02:42:33;13.27;;;4.95;;
76786;SDS011;65739;51.482;5.702;2023-07-31T02:44:58;13.38;;;4.75;;
76786;SDS011;65739;51.482;5.702;2023-07-31T02:47:24;16.45;;;5.63;;
76786;SDS011;65739;51.482;5.702;2023-07-31T02:49:49;13.80;;;4.43;;
76786;SDS011;65739;51.482;5.702;2023-07-31T02:52:15;11.95;;;4.75;;
76786;SDS011;65739;51.482;5.702;2023-07-31T02:54:40;13.82;;;5.05;;
76786;SDS011;65739;51.482;5.702;2023-07-31T02:57:06;11.98;;;4.30;;
76786;SDS011;65739;51.482;5.702;2023-07-31T02:59:31;12.43;;;4.82;;
76786;SDS011;65739;51.482;5.702;2023-07-31T03:01:57;13.23;;;4.22;;
76786;SDS011;65739;51.482;5.702;2023-07-31T03:04:22;19.13;;;5.05;;
76786;SDS011;65739;51.482;5.702;2023-07-31T03:06:48;18.23;;;4.60;;
76786;SDS011;65739;51.482;5.702;2023-07-31T03:09:13;15.57;;;4.50;;
76786;SDS011;65739;51.482;5.702;2023-07-31T03:11:39;14.77;;;5.30;;
76786;SDS011;65739;51.482;5.702;2023-07-31T03:14:04;11.38;;;4.60;;
76786;SDS011;65739;51.482;5.702;2023-07-31T03:16:30;12.93;;;4.75;;
76786;SDS011;65739;51.482;5.702;2023-07-31T03:18:55;19.00;;;4.78;;
76786;SDS011;65739;51.482;5.702;2023-07-31T03:21:21;15.50;;;4.75;;
76786;SDS011;65739;51.482;5.702;2023-07-31T03:23:47;12.60;;;4.97;;
76786;SDS011;65739;51.482;5.702;2023-07-31T03:26:12;14.63;;;4.70;;
76786;SDS011;65739;51.482;5.702;2023-07-31T03:28:38;15.25;;;4.47;;
76786;SDS011;65739;51.482;5.702;2023-07-31T03:31:04;13.30;;;4.88;;
76786;SDS011;65739;51.482;5.702;2023-07-31T03:33:29;12.32;;;4.45;;
76786;SDS011;65739;51.482;5.702;2023-07-31T03:35:55;13.55;;;4.32;;
76786;SDS011;65739;51.482;5.702;2023-07-31T03:38:21;16.45;;;4.57;;
76786;SDS011;65739;51.482;5.702;2023-07-31T03:40:46;19.13;;;5.10;;
76786;SDS011;65739;51.482;5.702;2023-07-31T03:43:12;13.00;;;4.72;;
76786;SDS011;65739;51.482;5.702;2023-07-31T03:45:38;10.15;;;4.30;;
76786;SDS011;65739;51.482;5.702;2023-07-31T03:48:04;12.57;;;5.07;;
76786;SDS011;65739;51.482;5.702;2023-07-31T03:50:29;16.55;;;4.68;;
76786;SDS011;65739;51.482;5.702;2023-07-31T03:52:55;15.52;;;5.00;;
76786;SDS011;65739;51.482;5.702;2023-07-31T03:55:21;13.82;;;5.15;;
76786;SDS011;65739;51.482;5.702;2023-07-31T03:57:47;11.63;;;4.35;;
76786;SDS011;65739;51.482;5.702;2023-07-31T04:00:12;16.50;;;4.47;;
76786;SDS011;65739;51.482;5.702;2023-07-31T04:02:38;17.80;;;4.78;;
76786;SDS011;65739;51.482;5.702;2023-07-31T04:05:04;13.68;;;4.45;;
76786;SDS011;65739;51.482;5.702;2023-07-31T04:07:29;17.55;;;4.60;;
76786;SDS011;65739;51.482;5.702;2023-07-31T04:09:55;13.60;;;4.25;;
76786;SDS011;65739;51.482;5.702;2023-07-31T04:12:22;17.25;;;4.70;;
76786;SDS011;65739;51.482;5.702;2023-07-31T04:14:47;20.05;;;4.38;;
76786;SDS011;65739;51.482;5.702;2023-07-31T04:17:13;15.65;;;4.97;;
76786;SDS011;65739;51.482;5.702;2023-07-31T04:19:38;21.67;;;5.13;;
76786;SDS011;65739;51.482;5.702;2023-07-31T04:22:04;15.60;;;5.75;;
76786;SDS011;65739;51.482;5.702;2023-07-31T04:24:29;20.73;;;5.45;;
76786;SDS011;65739;51.482;5.702;2023-07-31T04:26:55;15.43;;;5.20;;
76786;SDS011;65739;51.482;5.702;2023-07-31T04:29:21;16.75;;;5.43;;
76786;SDS011;65739;51.482;5.702;2023-07-31T04:31:47;18.25;;;5.35;;
76786;SDS011;65739;51.482;5.702;2023-07-31T04:34:13;14.00;;;5.43;;
76786;SDS011;65739;51.482;5.702;2023-07-31T04:36:39;17.45;;;5.15;;
76786;SDS011;65739;51.482;5.702;2023-07-31T04:39:04;15.25;;;5.25;;
76786;SDS011;65739;51.482;5.702;2023-07-31T04:41:30;19.95;;;5.22;;
76786;SDS011;65739;51.482;5.702;2023-07-31T04:43:56;13.68;;;4.82;;
76786;SDS011;65739;51.482;5.702;2023-07-31T04:46:21;17.35;;;5.03;;
76786;SDS011;65739;51.482;5.702;2023-07-31T04:48:46;15.13;;;4.90;;
76786;SDS011;65739;51.482;5.702;2023-07-31T04:51:12;13.20;;;4.43;;
76786;SDS011;65739;51.482;5.702;2023-07-31T04:53:38;11.30;;;5.18;;
76786;SDS011;65739;51.482;5.702;2023-07-31T04:56:03;21.40;;;5.22;;
76786;SDS011;65739;51.482;5.702;2023-07-31T04:58:29;16.02;;;5.00;;
76786;SDS011;65739;51.482;5.702;2023-07-31T05:00:54;14.43;;;4.70;;
76786;SDS011;65739;51.482;5.702;2023-07-31T05:03:20;12.45;;;4.72;;
76786;SDS011;65739;51.482;5.702;2023-07-31T05:05:45;15.63;;;4.97;;
76786;SDS011;65739;51.482;5.702;2023-07-31T05:08:11;16.10;;;4.88;;
76786;SDS011;65739;51.482;5.702;2023-07-31T05:10:36;13.38;;;5.00;;
76786;SDS011;65739;51.482;5.702;2023-07-31T05:13:02;21.48;;;5.25;;
76786;SDS011;65739;51.482;5.702;2023-07-31T05:15:28;9.52;;;4.85;;
76786;SDS011;65739;51.482;5.702;2023-07-31T05:17:54;13.48;;;5.13;;
76786;SDS011;65739;51.482;5.702;2023-07-31T05:20:20;14.15;;;4.75;;
76786;SDS011;65739;51.482;5.702;2023-07-31T05:22:46;11.10;;;4.57;;
76786;SDS011;65739;51.482;5.702;2023-07-31T05:25:11;17.08;;;5.30;;
76786;SDS011;65739;51.482;5.702;2023-07-31T05:27:37;11.55;;;4.70;;
76786;SDS011;65739;51.482;5.702;2023-07-31T05:30:03;14.82;;;4.80;;
76786;SDS011;65739;51.482;5.702;2023-07-31T05:32:29;10.75;;;4.55;;
76786;SDS011;65739;51.482;5.702;2023-07-31T05:34:54;10.23;;;3.90;;
76786;SDS011;65739;51.482;5.702;2023-07-31T05:37:20;10.07;;;4.50;;
76786;SDS011;65739;51.482;5.702;2023-07-31T05:39:45;13.55;;;4.70;;
76786;SDS011;65739;51.482;5.702;2023-07-31T05:42:11;12.77;;;5.18;;
76786;SDS011;65739;51.482;5.702;2023-07-31T05:44:36;7.88;;;4.05;;
76786;SDS011;65739;51.482;5.702;2023-07-31T05:47:02;11.75;;;4.50;;
76786;SDS011;65739;51.482;5.702;2023-07-31T05:49:27;11.13;;;4.53;;
76786;SDS011;65739;51.482;5.702;2023-07-31T05:51:53;8.98;;;4.30;;
76786;SDS011;65739;51.482;5.702;2023-07-31T05:54:18;9.77;;;4.50;;
76786;SDS011;65739;51.482;5.702;2023-07-31T05:56:44;8.05;;;4.45;;
76786;SDS011;65739;51.482;5.702;2023-07-31T05:59:11;11.25;;;4.68;;
76786;SDS011;65739;51.482;5.702;2023-07-31T06:01:37;9.50;;;4.85;;
76786;SDS011;65739;51.482;5.702;2023-07-31T06:04:03;11.15;;;5.50;;
76786;SDS011;65739;51.482;5.702;2023-07-31T06:06:29;12.55;;;5.85;;
76786;SDS011;65739;51.482;5.702;2023-07-31T06:08:54;11.45;;;5.88;;
76786;SDS011;65739;51.482;5.702;2023-07-31T06:11:20;15.73;;;5.93;;
76786;SDS011;65739;51.482;5.702;2023-07-31T06:13:46;10.38;;;5.85;;
76786;SDS011;65739;51.482;5.702;2023-07-31T06:16:13;16.13;;;6.50;;
76786;SDS011;65739;51.482;5.702;2023-07-31T06:18:40;10.82;;;5.53;;
76786;SDS011;65739;51.482;5.702;2023-07-31T06:21:06;8.73;;;5.25;;
76786;SDS011;65739;51.482;5.702;2023-07-31T06:23:31;12.77;;;5.68;;
76786;SDS011;65739;51.482;5.702;2023-07-31T06:25:57;13.80;;;6.00;;
76786;SDS011;65739;51.482;5.702;2023-07-31T06:28:29;12.30;;;6.00;;
76786;SDS011;65739;51.482;5.702;2023-07-31T06:30:56;12.35;;;5.70;;
76786;SDS011;65739;51.482;5.702;2023-07-31T06:33:43;10.52;;;5.45;;
76786;SDS011;65739;51.482;5.702;2023-07-31T06:36:08;15.95;;;5.47;;
76786;SDS011;65739;51.482;5.702;2023-07-31T06:38:33;8.60;;;5.78;;
76786;SDS011;65739;51.482;5.702;2023-07-31T06:41:06;11.63;;;6.22;;
76786;SDS011;65739;51.482;5.702;2023-07-31T06:43:32;14.93;;;6.40;;
76786;SDS011;65739;51.482;5.702;2023-07-31T06:45:57;14.55;;;6.20;;
76786;SDS011;65739;51.482;5.702;2023-07-31T06:48:38;12.70;;;6.55;;
76786;SDS011;65739;51.482;5.702;2023-07-31T06:51:04;11.98;;;6.10;;
76786;SDS011;65739;51.482;5.702;2023-07-31T06:53:30;10.32;;;5.68;;
76786;SDS011;65739;51.482;5.702;2023-07-31T06:55:55;9.65;;;5.28;;
76786;SDS011;65739;51.482;5.702;2023-07-31T06:58:21;16.60;;;5.72;;
76786;SDS011;65739;51.482;5.702;2023-07-31T07:00:46;11.13;;;5.68;;
76786;SDS011;65739;51.482;5.702;2023-07-31T07:03:14;11.20;;;5.57;;
76786;SDS011;65739;51.482;5.702;2023-07-31T07:05:39;6.85;;;5.13;;
76786;SDS011;65739;51.482;5.702;2023-07-31T07:08:05;8.68;;;4.78;;
76786;SDS011;65739;51.482;5.702;2023-07-31T07:10:31;10.93;;;5.25;;
76786;SDS011;65739;51.482;5.702;2023-07-31T07:12:56;7.50;;;5.22;;
76786;SDS011;65739;51.482;5.702;2023-07-31T07:15:22;10.13;;;5.32;;
76786;SDS011;65739;51.482;5.702;2023-07-31T07:17:48;9.90;;;4.38;;
76786;SDS011;65739;51.482;5.702;2023-07-31T07:20:14;7.93;;;4.72;;
76786;SDS011;65739;51.482;5.702;2023-07-31T07:22:40;5.63;;;4.70;;
76786;SDS011;65739;51.482;5.702;2023-07-31T07:25:08;11.48;;;5.28;;
76786;SDS011;65739;51.482;5.702;2023-07-31T07:27:36;8.05;;;5.32;;
76786;SDS011;65739;51.482;5.702;2023-07-31T07:30:19;9.00;;;4.35;;
76786;SDS011;65739;51.482;5.702;2023-07-31T07:32:45;7.22;;;4.50;;
76786;SDS011;65739;51.482;5.702;2023-07-31T07:35:11;8.73;;;5.10;;
76786;SDS011;65739;51.482;5.702;2023-07-31T07:37:36;5.15;;;3.95;;
76786;SDS011;65739;51.482;5.702;2023-07-31T07:40:02;7.85;;;3.88;;
76786;SDS011;65739;51.482;5.702;2023-07-31T07:42:28;4.05;;;3.53;;
76786;SDS011;65739;51.482;5.702;2023-07-31T07:44:54;5.72;;;3.88;;
76786;SDS011;65739;51.482;5.702;2023-07-31T07:47:19;5.50;;;3.75;;
76786;SDS011;65739;51.482;5.702;2023-07-31T07:49:45;7.22;;;3.97;;
76786;SDS011;65739;51.482;5.702;2023-07-31T07:52:10;5.90;;;4.40;;
76786;SDS011;65739;51.482;5.702;2023-07-31T07:54:36;4.78;;;3.15;;
76786;SDS011;65739;51.482;5.702;2023-07-31T07:57:02;5.95;;;3.78;;
76786;SDS011;65739;51.482;5.702;2023-07-31T07:59:28;6.53;;;4.28;;
76786;SDS011;65739;51.482;5.702;2023-07-31T08:01:53;6.20;;;4.00;;
76786;SDS011;65739;51.482;5.702;2023-07-31T08:04:19;5.47;;;4.45;;
76786;SDS011;65739;51.482;5.702;2023-07-31T08:06:44;5.82;;;4.65;;
76786;SDS011;65739;51.482;5.702;2023-07-31T08:09:10;8.88;;;4.53;;
76786;SDS011;65739;51.482;5.702;2023-07-31T08:11:36;6.63;;;4.72;;
76786;SDS011;65739;51.482;5.702;2023-07-31T08:14:01;8.50;;;4.63;;
76786;SDS011;65739;51.482;5.702;2023-07-31T08:16:27;9.07;;;5.15;;
76786;SDS011;65739;51.482;5.702;2023-07-31T08:18:53;9.85;;;5.30;;
76786;SDS011;65739;51.482;5.702;2023-07-31T08:21:18;7.60;;;4.93;;
76786;SDS011;65739;51.482;5.702;2023-07-31T08:23:44;7.93;;;5.53;;
76786;SDS011;65739;51.482;5.702;2023-07-31T08:26:16;11.75;;;6.03;;
76786;SDS011;65739;51.482;5.702;2023-07-31T08:28:42;8.07;;;4.95;;
76786;SDS011;65739;51.482;5.702;2023-07-31T08:31:08;9.63;;;5.07;;
76786;SDS011;65739;51.482;5.702;2023-07-31T08:33:33;10.98;;;5.55;;
76786;SDS011;65739;51.482;5.702;2023-07-31T08:35:59;10.88;;;6.15;;
76786;SDS011;65739;51.482;5.702;2023-07-31T08:38:26;12.85;;;5.55;;
76786;SDS011;65739;51.482;5.702;2023-07-31T08:40:51;9.43;;;5.35;;
76786;SDS011;65739;51.482;5.702;2023-07-31T08:43:18;13.43;;;5.45;;
76786;SDS011;65739;51.482;5.702;2023-07-31T08:45:46;7.22;;;4.95;;
76786;SDS011;65739;51.482;5.702;2023-07-31T08:48:12;8.70;;;5.18;;
76786;SDS011;65739;51.482;5.702;2023-07-31T08:50:40;7.90;;;4.95;;
76786;SDS011;65739;51.482;5.702;2023-07-31T08:53:06;9.05;;;5.20;;
76786;SDS011;65739;51.482;5.702;2023-07-31T08:55:32;8.35;;;5.40;;
76786;SDS011;65739;51.482;5.702;2023-07-31T08:57:58;10.00;;;4.82;;
76786;SDS011;65739;51.482;5.702;2023-07-31T09:00:25;7.00;;;4.55;;
76786;SDS011;65739;51.482;5.702;2023-07-31T09:02:56;8.73;;;4.75;;
76786;SDS011;65739;51.482;5.702;2023-07-31T09:05:28;7.78;;;4.80;;
76786;SDS011;65739;51.482;5.702;2023-07-31T09:07:54;12.30;;;4.88;;
76786;SDS011;65739;51.482;5.702;2023-07-31T09:10:21;9.48;;;5.15;;
76786;SDS011;65739;51.482;5.702;2023-07-31T09:12:47;8.55;;;5.38;;
76786;SDS011;65739;51.482;5.702;2023-07-31T09:15:14;7.05;;;5.10;;
76786;SDS011;65739;51.482;5.702;2023-07-31T09:17:40;10.43;;;5.15;;
76786;SDS011;65739;51.482;5.702;2023-07-31T09:22:37;9.38;;;5.47;;
76786;SDS011;65739;51.482;5.702;2023-07-31T09:25:13;8.65;;;4.57;;
76786;SDS011;65739;51.482;5.702;2023-07-31T09:30:16;13.38;;;4.75;;
76786;SDS011;65739;51.482;5.702;2023-07-31T09:32:43;9.45;;;4.03;;
76786;SDS011;65739;51.482;5.702;2023-07-31T09:35:29;8.43;;;4.72;;
76786;SDS011;65739;51.482;5.702;2023-07-31T09:37:57;8.73;;;4.75;;
76786;SDS011;65739;51.482;5.702;2023-07-31T09:40:33;9.50;;;5.30;;
76786;SDS011;65739;51.482;5.702;2023-07-31T09:43:01;8.10;;;4.32;;
76786;SDS011;65739;51.482;5.702;2023-07-31T09:45:38;8.38;;;4.82;;
76786;SDS011;65739;51.482;5.702;2023-07-31T09:48:09;8.30;;;4.95;;
76786;SDS011;65739;51.482;5.702;2023-07-31T09:50:36;7.35;;;4.15;;
76786;SDS011;65739;51.482;5.702;2023-07-31T09:53:04;8.13;;;4.40;;
76786;SDS011;65739;51.482;5.702;2023-07-31T09:55:30;6.47;;;4.25;;
76786;SDS011;65739;51.482;5.702;2023-07-31T09:57:56;7.70;;;4.43;;
76786;SDS011;65739;51.482;5.702;2023-07-31T10:00:23;9.90;;;4.53;;
76786;SDS011;65739;51.482;5.702;2023-07-31T10:02:52;6.50;;;3.40;;
76786;SDS011;65739;51.482;5.702;2023-07-31T10:05:19;7.07;;;4.32;;
76786;SDS011;65739;51.482;5.702;2023-07-31T10:07:50;5.40;;;3.72;;
76786;SDS011;65739;51.482;5.702;2023-07-31T10:10:19;7.75;;;4.20;;
76786;SDS011;65739;51.482;5.702;2023-07-31T10:12:46;6.63;;;3.92;;
76786;SDS011;65739;51.482;5.702;2023-07-31T10:15:14;8.57;;;3.83;;
76786;SDS011;65739;51.482;5.702;2023-07-31T10:17:41;8.23;;;3.90;;
76786;SDS011;65739;51.482;5.702;2023-07-31T10:20:07;6.32;;;3.70;;
76786;SDS011;65739;51.482;5.702;2023-07-31T10:22:34;7.30;;;4.00;;
76786;SDS011;65739;51.482;5.702;2023-07-31T10:25:00;7.53;;;3.83;;
76786;SDS011;65739;51.482;5.702;2023-07-31T10:27:25;6.32;;;4.13;;
76786;SDS011;65739;51.482;5.702;2023-07-31T10:29:52;5.88;;;3.60;;
76786;SDS011;65739;51.482;5.702;2023-07-31T10:32:20;6.85;;;3.67;;
76786;SDS011;65739;51.482;5.702;2023-07-31T10:34:47;9.02;;;3.30;;
76786;SDS011;65739;51.482;5.702;2023-07-31T10:42:29;5.88;;;3.50;;
76786;SDS011;65739;51.482;5.702;2023-07-31T10:44:59;4.32;;;3.05;;
76786;SDS011;65739;51.482;5.702;2023-07-31T10:47:26;5.85;;;3.40;;
76786;SDS011;65739;51.482;5.702;2023-07-31T10:49:52;5.75;;;3.40;;
76786;SDS011;65739;51.482;5.702;2023-07-31T10:52:21;7.70;;;3.40;;
76786;SDS011;65739;51.482;5.702;2023-07-31T10:54:48;6.32;;;3.55;;
76786;SDS011;65739;51.482;5.702;2023-07-31T10:57:21;6.70;;;3.55;;
76786;SDS011;65739;51.482;5.702;2023-07-31T10:59:47;7.13;;;3.33;;
76786;SDS011;65739;51.482;5.702;2023-07-31T11:02:26;8.75;;;3.70;;
76786;SDS011;65739;51.482;5.702;2023-07-31T11:05:10;6.38;;;3.30;;
76786;SDS011;65739;51.482;5.702;2023-07-31T11:07:48;6.43;;;3.28;;
76786;SDS011;65739;51.482;5.702;2023-07-31T11:10:17;5.03;;;2.88;;
76786;SDS011;65739;51.482;5.702;2023-07-31T11:12:44;4.05;;;3.10;;
76786;SDS011;65739;51.482;5.702;2023-07-31T11:15:11;4.07;;;2.65;;
76786;SDS011;65739;51.482;5.702;2023-07-31T11:17:40;5.38;;;2.75;;
76786;SDS011;65739;51.482;5.702;2023-07-31T11:20:06;4.22;;;2.72;;
76786;SDS011;65739;51.482;5.702;2023-07-31T11:22:34;7.32;;;2.92;;
76786;SDS011;65739;51.482;5.702;2023-07-31T11:25:00;5.25;;;3.58;;
76786;SDS011;65739;51.482;5.702;2023-07-31T11:27:28;5.70;;;3.22;;
76786;SDS011;65739;51.482;5.702;2023-07-31T11:29:59;6.78;;;3.13;;
76786;SDS011;65739;51.482;5.702;2023-07-31T11:32:26;4.78;;;2.78;;
76786;SDS011;65739;51.482;5.702;2023-07-31T11:34:52;4.90;;;2.70;;
76786;SDS011;65739;51.482;5.702;2023-07-31T11:37:18;5.88;;;3.00;;
76786;SDS011;65739;51.482;5.702;2023-07-31T11:39:58;6.85;;;2.83;;
76786;SDS011;65739;51.482;5.702;2023-07-31T11:42:24;8.85;;;3.58;;
76786;SDS011;65739;51.482;5.702;2023-07-31T11:44:50;5.18;;;3.15;;
76786;SDS011;65739;51.482;5.702;2023-07-31T11:47:16;5.90;;;2.95;;
76786;SDS011;65739;51.482;5.702;2023-07-31T11:49:41;8.95;;;3.25;;
76786;SDS011;65739;51.482;5.702;2023-07-31T11:52:08;5.43;;;2.78;;
76786;SDS011;65739;51.482;5.702;2023-07-31T11:54:35;3.63;;;2.67;;
76786;SDS011;65739;51.482;5.702;2023-07-31T11:57:01;7.55;;;2.50;;
76786;SDS011;65739;51.482;5.702;2023-07-31T11:59:27;5.00;;;2.42;;
76786;SDS011;65739;51.482;5.702;2023-07-31T12:01:53;5.10;;;2.78;;
76786;SDS011;65739;51.482;5.702;2023-07-31T12:04:19;4.50;;;2.88;;
76786;SDS011;65739;51.482;5.702;2023-07-31T12:06:46;5.55;;;3.10;;
76786;SDS011;65739;51.482;5.702;2023-07-31T12:09:13;5.63;;;2.90;;
76786;SDS011;65739;51.482;5.702;2023-07-31T12:11:43;6.45;;;2.90;;
76786;SDS011;65739;51.482;5.702;2023-07-31T12:14:19;4.80;;;2.60;;
76786;SDS011;65739;51.482;5.702;2023-07-31T12:16:57;3.80;;;2.50;;
76786;SDS011;65739;51.482;5.702;2023-07-31T12:19:27;4.25;;;2.35;;
76786;SDS011;65739;51.482;5.702;2023-07-31T12:21:54;5.32;;;3.20;;
76786;SDS011;65739;51.482;5.702;2023-07-31T12:24:20;3.33;;;2.83;;
76786;SDS011;65739;51.482;5.702;2023-07-31T12:26:46;6.45;;;3.08;;
76786;SDS011;65739;51.482;5.702;2023-07-31T12:29:13;4.53;;;3.10;;
76786;SDS011;65739;51.482;5.702;2023-07-31T12:31:40;5.53;;;2.85;;
76786;SDS011;65739;51.482;5.702;2023-07-31T12:34:14;6.45;;;3.38;;
76786;SDS011;65739;51.482;5.702;2023-07-31T12:36:43;6.38;;;3.60;;
76786;SDS011;65739;51.482;5.702;2023-07-31T12:39:09;4.65;;;2.70;;
76786;SDS011;65739;51.482;5.702;2023-07-31T12:41:35;7.65;;;3.80;;
76786;SDS011;65739;51.482;5.702;2023-07-31T12:44:00;7.97;;;3.80;;
76786;SDS011;65739;51.482;5.702;2023-07-31T12:46:26;6.43;;;3.28;;
76786;SDS011;65739;51.482;5.702;2023-07-31T12:48:51;5.00;;;3.60;;
76786;SDS011;65739;51.482;5.702;2023-07-31T12:51:17;6.70;;;3.20;;
76786;SDS011;65739;51.482;5.702;2023-07-31T12:53:42;6.88;;;3.83;;
76786;SDS011;65739;51.482;5.702;2023-07-31T12:56:08;9.60;;;4.30;;
76786;SDS011;65739;51.482;5.702;2023-07-31T12:58:33;6.30;;;3.65;;
76786;SDS011;65739;51.482;5.702;2023-07-31T13:00:59;9.77;;;4.25;;
76786;SDS011;65739;51.482;5.702;2023-07-31T13:03:26;8.40;;;3.85;;
76786;SDS011;65739;51.482;5.702;2023-07-31T13:05:51;7.75;;;3.83;;
76786;SDS011;65739;51.482;5.702;2023-07-31T13:08:17;11.10;;;4.30;;
76786;SDS011;65739;51.482;5.702;2023-07-31T13:10:43;8.85;;;3.67;;
76786;SDS011;65739;51.482;5.702;2023-07-31T13:13:09;7.13;;;3.50;;
76786;SDS011;65739;51.482;5.702;2023-07-31T13:15:35;5.43;;;3.53;;
76786;SDS011;65739;51.482;5.702;2023-07-31T13:18:00;9.77;;;4.10;;
76786;SDS011;65739;51.482;5.702;2023-07-31T13:20:26;7.53;;;4.30;;
76786;SDS011;65739;51.482;5.702;2023-07-31T13:22:51;6.13;;;3.85;;
76786;SDS011;65739;51.482;5.702;2023-07-31T13:25:17;6.22;;;4.10;;
76786;SDS011;65739;51.482;5.702;2023-07-31T13:27:43;10.50;;;3.90;;
76786;SDS011;65739;51.482;5.702;2023-07-31T13:30:08;7.00;;;3.50;;
76786;SDS011;65739;51.482;5.702;2023-07-31T13:32:34;6.25;;;3.72;;
76786;SDS011;65739;51.482;5.702;2023-07-31T13:35:03;7.22;;;3.90;;
76786;SDS011;65739;51.482;5.702;2023-07-31T13:37:33;8.33;;;3.63;;
76786;SDS011;65739;51.482;5.702;2023-07-31T13:39:58;10.40;;;4.03;;
76786;SDS011;65739;51.482;5.702;2023-07-31T13:42:24;7.85;;;3.83;;
76786;SDS011;65739;51.482;5.702;2023-07-31T13:44:49;7.78;;;3.75;;
76786;SDS011;65739;51.482;5.702;2023-07-31T13:47:15;8.30;;;3.95;;
76786;SDS011;65739;51.482;5.702;2023-07-31T13:49:40;10.85;;;4.20;;
76786;SDS011;65739;51.482;5.702;2023-07-31T13:52:08;7.07;;;3.70;;
76786;SDS011;65739;51.482;5.702;2023-07-31T13:54:33;13.18;;;4.32;;
76786;SDS011;65739;51.482;5.702;2023-07-31T13:56:59;10.93;;;4.07;;
76786;SDS011;65739;51.482;5.702;2023-07-31T13:59:25;6.10;;;4.43;;
76786;SDS011;65739;51.482;5.702;2023-07-31T14:01:51;10.50;;;4.30;;
76786;SDS011;65739;51.482;5.702;2023-07-31T14:04:16;7.68;;;4.25;;
76786;SDS011;65739;51.482;5.702;2023-07-31T14:06:42;13.90;;;4.85;;
76786;SDS011;65739;51.482;5.702;2023-07-31T14:09:08;13.13;;;4.95;;
76786;SDS011;65739;51.482;5.702;2023-07-31T14:11:34;9.07;;;4.70;;
76786;SDS011;65739;51.482;5.702;2023-07-31T14:13:59;10.18;;;4.63;;
76786;SDS011;65739;51.482;5.702;2023-07-31T14:16:27;11.23;;;4.95;;
76786;SDS011;65739;51.482;5.702;2023-07-31T14:18:53;9.95;;;5.88;;
76786;SDS011;65739;51.482;5.702;2023-07-31T14:21:18;11.43;;;5.35;;
76786;SDS011;65739;51.482;5.702;2023-07-31T14:23:44;10.73;;;5.82;;
76786;SDS011;65739;51.482;5.702;2023-07-31T14:26:10;14.88;;;5.80;;
76786;SDS011;65739;51.482;5.702;2023-07-31T14:28:36;15.68;;;6.05;;
76786;SDS011;65739;51.482;5.702;2023-07-31T14:31:02;8.75;;;5.45;;
76786;SDS011;65739;51.482;5.702;2023-07-31T14:33:27;13.75;;;6.07;;
76786;SDS011;65739;51.482;5.702;2023-07-31T14:35:53;10.05;;;4.95;;
76786;SDS011;65739;51.482;5.702;2023-07-31T14:38:19;11.88;;;5.70;;
76786;SDS011;65739;51.482;5.702;2023-07-31T14:40:44;10.85;;;6.05;;
76786;SDS011;65739;51.482;5.702;2023-07-31T14:43:10;9.93;;;5.85;;
76786;SDS011;65739;51.482;5.702;2023-07-31T14:45:36;10.93;;;5.78;;
76786;SDS011;65739;51.482;5.702;2023-07-31T14:48:01;10.65;;;6.07;;
76786;SDS011;65739;51.482;5.702;2023-07-31T14:50:27;13.98;;;5.95;;
76786;SDS011;65739;51.482;5.702;2023-07-31T14:52:53;14.93;;;6.00;;
76786;SDS011;65739;51.482;5.702;2023-07-31T14:55:19;11.05;;;6.18;;
76786;SDS011;65739;51.482;5.702;2023-07-31T14:57:45;11.23;;;6.13;;